SBTT

Details ICAO SBTT (TBT)
Name TABATINGA
Region Brazil
Timezone America/Eirunepe (UTC-5.0)
Plans Departing 8
Arriving 10
Stats Elevation 279 ft / 85 m (AMSL)
Location -4.255669° -69.935829°
Runways 1
Magnetic Variation 9.007° W
Sunrise 2017-12-14 10:24:57 UTC / 2017-12-14 05:24:57 Local
Sunset 2017-12-14 22:46:52 UTC / 2017-12-14 17:46:52 Local
Advertisement - Login to hide

Runways

ID Width Length Bearing (true) Bearing (mag) Surface Threshold Offset Overrun Length
12 105 ft / 32 m 7,067 ft / 2,154 m 115.07° 124.08° Asphalt 0 ft / 0 m 0 ft / 0 m
30 105 ft / 32 m 7,067 ft / 2,154 m 295.06° 304.07° Asphalt 0 ft / 0 m 0 ft / 0 m

Map

Weather


0- 5 10 15 20 25 30 35+ Temperature / ° C

Clouds and Precipitation
Forecast for 2017-12-15 06:00 UTC. Updated 5 minutes ago

Ground ~20,000 ft ~40,000 ft Winds

METAR

Not found

TAF

TAF SBTT 142200Z 1500/1524 08005KT CAVOK TN21/1506Z TX31/1519Z BECMG 1504/1506 00000KT 9999 SCT010 BECMG 1509/1511 11005KT CAVOK BECMG 1514/1516 28005KT 9999 SCT020 RMK PCQ

Frequencies

Tower 125.90 MHz RDO
Warning: Do not use this data for real-world aviation or navigation. No guarantee of current accuracy is given.